sensor_id;sensor_type;location;lat;lon;timestamp;P1;durP1;ratioP1;P2;durP2;ratioP2
40737;SDS011;54759;48.094;-1.628;2023-07-24T00:00:24;2.72;;;1.27;;
40737;SDS011;54759;48.094;-1.628;2023-07-24T00:03:26;3.40;;;1.40;;
40737;SDS011;54759;48.094;-1.628;2023-07-24T00:06:28;3.33;;;1.23;;
40737;SDS011;54759;48.094;-1.628;2023-07-24T00:09:33;3.03;;;1.00;;
40737;SDS011;54759;48.094;-1.628;2023-07-24T00:12:36;3.15;;;1.33;;
40737;SDS011;54759;48.094;-1.628;2023-07-24T00:15:39;2.42;;;1.10;;
40737;SDS011;54759;48.094;-1.628;2023-07-24T00:18:44;3.67;;;1.63;;
40737;SDS011;54759;48.094;-1.628;2023-07-24T00:21:46;3.10;;;1.20;;
40737;SDS011;54759;48.094;-1.628;2023-07-24T00:24:51;3.20;;;1.13;;
40737;SDS011;54759;48.094;-1.628;2023-07-24T00:27:52;2.58;;;1.27;;
40737;SDS011;54759;48.094;-1.628;2023-07-24T00:30:54;2.55;;;1.30;;
40737;SDS011;54759;48.094;-1.628;2023-07-24T00:33:57;3.28;;;1.45;;
40737;SDS011;54759;48.094;-1.628;2023-07-24T00:37:01;3.80;;;1.63;;
40737;SDS011;54759;48.094;-1.628;2023-07-24T00:40:06;6.20;;;1.92;;
40737;SDS011;54759;48.094;-1.628;2023-07-24T00:43:11;4.47;;;1.77;;
40737;SDS011;54759;48.094;-1.628;2023-07-24T00:46:13;5.40;;;2.03;;
40737;SDS011;54759;48.094;-1.628;2023-07-24T00:49:18;3.90;;;1.48;;
40737;SDS011;54759;48.094;-1.628;2023-07-24T00:52:20;3.50;;;1.40;;
40737;SDS011;54759;48.094;-1.628;2023-07-24T00:55:25;5.70;;;1.90;;
40737;SDS011;54759;48.094;-1.628;2023-07-24T00:58:27;3.85;;;1.75;;
40737;SDS011;54759;48.094;-1.628;2023-07-24T01:01:31;4.20;;;1.40;;
40737;SDS011;54759;48.094;-1.628;2023-07-24T01:04:33;4.63;;;1.80;;
40737;SDS011;54759;48.094;-1.628;2023-07-24T01:07:43;4.32;;;1.60;;
40737;SDS011;54759;48.094;-1.628;2023-07-24T01:10:46;4.38;;;1.70;;
40737;SDS011;54759;48.094;-1.628;2023-07-24T01:13:52;4.10;;;1.52;;
40737;SDS011;54759;48.094;-1.628;2023-07-24T01:20:03;5.95;;;2.03;;
40737;SDS011;54759;48.094;-1.628;2023-07-24T01:23:14;4.07;;;1.60;;
40737;SDS011;54759;48.094;-1.628;2023-07-24T01:26:25;4.63;;;1.90;;
40737;SDS011;54759;48.094;-1.628;2023-07-24T01:29:26;4.88;;;1.77;;
40737;SDS011;54759;48.094;-1.628;2023-07-24T01:32:28;4.90;;;2.25;;
40737;SDS011;54759;48.094;-1.628;2023-07-24T01:35:30;4.35;;;1.73;;
40737;SDS011;54759;48.094;-1.628;2023-07-24T01:38:34;3.70;;;1.98;;
40737;SDS011;54759;48.094;-1.628;2023-07-24T01:41:39;5.05;;;1.55;;
40737;SDS011;54759;48.094;-1.628;2023-07-24T01:44:43;7.32;;;2.05;;
40737;SDS011;54759;48.094;-1.628;2023-07-24T01:47:48;4.90;;;1.60;;
40737;SDS011;54759;48.094;-1.628;2023-07-24T01:50:53;5.22;;;1.80;;
40737;SDS011;54759;48.094;-1.628;2023-07-24T01:53:55;3.50;;;1.77;;
40737;SDS011;54759;48.094;-1.628;2023-07-24T01:56:57;4.47;;;1.85;;
40737;SDS011;54759;48.094;-1.628;2023-07-24T02:00:02;4.55;;;1.38;;
40737;SDS011;54759;48.094;-1.628;2023-07-24T02:03:05;3.53;;;1.52;;
40737;SDS011;54759;48.094;-1.628;2023-07-24T02:06:07;4.85;;;1.40;;
40737;SDS011;54759;48.094;-1.628;2023-07-24T02:09:12;3.63;;;1.73;;
40737;SDS011;54759;48.094;-1.628;2023-07-24T02:12:15;4.78;;;1.80;;
40737;SDS011;54759;48.094;-1.628;2023-07-24T02:15:17;5.00;;;1.65;;
40737;SDS011;54759;48.094;-1.628;2023-07-24T02:18:19;3.17;;;1.40;;
40737;SDS011;54759;48.094;-1.628;2023-07-24T02:21:21;2.75;;;1.48;;
40737;SDS011;54759;48.094;-1.628;2023-07-24T02:24:28;3.05;;;1.55;;
40737;SDS011;54759;48.094;-1.628;2023-07-24T02:27:33;1.80;;;0.85;;
40737;SDS011;54759;48.094;-1.628;2023-07-24T02:30:37;2.28;;;1.23;;
40737;SDS011;54759;48.094;-1.628;2023-07-24T02:33:40;1.90;;;1.20;;
40737;SDS011;54759;48.094;-1.628;2023-07-24T02:36:41;2.15;;;0.90;;
40737;SDS011;54759;48.094;-1.628;2023-07-24T02:39:46;2.88;;;1.00;;
40737;SDS011;54759;48.094;-1.628;2023-07-24T02:42:49;2.42;;;1.10;;
40737;SDS011;54759;48.094;-1.628;2023-07-24T02:45:50;2.67;;;1.52;;
40737;SDS011;54759;48.094;-1.628;2023-07-24T02:48:52;2.65;;;1.27;;
40737;SDS011;54759;48.094;-1.628;2023-07-24T02:51:54;1.23;;;0.90;;
40737;SDS011;54759;48.094;-1.628;2023-07-24T02:54:56;2.33;;;0.90;;
40737;SDS011;54759;48.094;-1.628;2023-07-24T02:57:58;1.60;;;1.00;;
40737;SDS011;54759;48.094;-1.628;2023-07-24T03:01:02;1.55;;;0.77;;
40737;SDS011;54759;48.094;-1.628;2023-07-24T03:04:07;1.75;;;1.02;;
40737;SDS011;54759;48.094;-1.628;2023-07-24T03:07:11;1.80;;;0.90;;
40737;SDS011;54759;48.094;-1.628;2023-07-24T03:10:17;1.73;;;0.90;;
40737;SDS011;54759;48.094;-1.628;2023-07-24T03:13:20;1.02;;;0.90;;
40737;SDS011;54759;48.094;-1.628;2023-07-24T03:16:22;1.38;;;0.80;;
40737;SDS011;54759;48.094;-1.628;2023-07-24T03:19:26;1.58;;;0.70;;
40737;SDS011;54759;48.094;-1.628;2023-07-24T03:22:28;1.52;;;0.85;;
40737;SDS011;54759;48.094;-1.628;2023-07-24T03:25:29;0.98;;;0.75;;
40737;SDS011;54759;48.094;-1.628;2023-07-24T03:28:32;1.45;;;0.70;;
40737;SDS011;54759;48.094;-1.628;2023-07-24T03:31:34;1.73;;;0.90;;
40737;SDS011;54759;48.094;-1.628;2023-07-24T03:35:59;1.17;;;0.70;;
40737;SDS011;54759;48.094;-1.628;2023-07-24T03:39:02;2.50;;;0.70;;
40737;SDS011;54759;48.094;-1.628;2023-07-24T03:42:09;0.82;;;0.60;;
40737;SDS011;54759;48.094;-1.628;2023-07-24T03:45:13;1.63;;;0.52;;
40737;SDS011;54759;48.094;-1.628;2023-07-24T03:48:15;2.25;;;0.50;;
40737;SDS011;54759;48.094;-1.628;2023-07-24T03:51:19;1.20;;;0.65;;
40737;SDS011;54759;48.094;-1.628;2023-07-24T03:54:21;2.67;;;0.70;;
40737;SDS011;54759;48.094;-1.628;2023-07-24T03:57:23;2.85;;;0.90;;
40737;SDS011;54759;48.094;-1.628;2023-07-24T04:00:24;0.80;;;0.50;;
40737;SDS011;54759;48.094;-1.628;2023-07-24T04:03:26;0.80;;;0.60;;
40737;SDS011;54759;48.094;-1.628;2023-07-24T04:06:29;0.82;;;0.50;;
40737;SDS011;54759;48.094;-1.628;2023-07-24T04:09:32;1.23;;;0.70;;
40737;SDS011;54759;48.094;-1.628;2023-07-24T04:12:33;2.20;;;0.52;;
40737;SDS011;54759;48.094;-1.628;2023-07-24T04:15:35;0.60;;;0.40;;
40737;SDS011;54759;48.094;-1.628;2023-07-24T04:18:41;1.17;;;0.70;;
40737;SDS011;54759;48.094;-1.628;2023-07-24T04:21:43;0.70;;;0.70;;
40737;SDS011;54759;48.094;-1.628;2023-07-24T04:24:45;0.88;;;0.60;;
40737;SDS011;54759;48.094;-1.628;2023-07-24T04:27:47;0.55;;;0.45;;
40737;SDS011;54759;48.094;-1.628;2023-07-24T04:30:48;0.77;;;0.60;;
40737;SDS011;54759;48.094;-1.628;2023-07-24T04:33:51;0.98;;;0.50;;
40737;SDS011;54759;48.094;-1.628;2023-07-24T04:36:53;0.82;;;0.52;;
40737;SDS011;54759;48.094;-1.628;2023-07-24T04:39:55;0.70;;;0.45;;
40737;SDS011;54759;48.094;-1.628;2023-07-24T04:42:58;0.85;;;0.52;;
40737;SDS011;54759;48.094;-1.628;2023-07-24T04:46:05;0.77;;;0.63;;
40737;SDS011;54759;48.094;-1.628;2023-07-24T04:49:07;2.10;;;0.60;;
40737;SDS011;54759;48.094;-1.628;2023-07-24T04:52:10;0.60;;;0.40;;
40737;SDS011;54759;48.094;-1.628;2023-07-24T04:55:11;0.77;;;0.40;;
40737;SDS011;54759;48.094;-1.628;2023-07-24T04:58:13;1.30;;;0.40;;
40737;SDS011;54759;48.094;-1.628;2023-07-24T05:01:15;0.60;;;0.50;;
40737;SDS011;54759;48.094;-1.628;2023-07-24T05:04:17;0.88;;;0.60;;
40737;SDS011;54759;48.094;-1.628;2023-07-24T05:07:19;0.50;;;0.50;;
40737;SDS011;54759;48.094;-1.628;2023-07-24T05:10:21;0.50;;;0.45;;
40737;SDS011;54759;48.094;-1.628;2023-07-24T05:13:22;0.60;;;0.40;;
40737;SDS011;54759;48.094;-1.628;2023-07-24T05:16:24;0.52;;;0.35;;
40737;SDS011;54759;48.094;-1.628;2023-07-24T05:19:26;0.40;;;0.32;;
40737;SDS011;54759;48.094;-1.628;2023-07-24T05:22:31;0.68;;;0.55;;
40737;SDS011;54759;48.094;-1.628;2023-07-24T05:25:33;0.50;;;0.40;;
40737;SDS011;54759;48.094;-1.628;2023-07-24T05:28:34;0.70;;;0.52;;
40737;SDS011;54759;48.094;-1.628;2023-07-24T05:31:36;0.50;;;0.50;;
40737;SDS011;54759;48.094;-1.628;2023-07-24T05:34:39;0.60;;;0.40;;
40737;SDS011;54759;48.094;-1.628;2023-07-24T05:37:41;0.70;;;0.52;;
40737;SDS011;54759;48.094;-1.628;2023-07-24T05:40:43;0.40;;;0.40;;
40737;SDS011;54759;48.094;-1.628;2023-07-24T05:43:44;0.30;;;0.30;;
40737;SDS011;54759;48.094;-1.628;2023-07-24T05:46:46;0.60;;;0.47;;
40737;SDS011;54759;48.094;-1.628;2023-07-24T05:49:49;0.65;;;0.50;;
40737;SDS011;54759;48.094;-1.628;2023-07-24T05:52:51;0.93;;;0.40;;
40737;SDS011;54759;48.094;-1.628;2023-07-24T05:55:57;0.63;;;0.45;;
40737;SDS011;54759;48.094;-1.628;2023-07-24T05:58:59;0.47;;;0.40;;
40737;SDS011;54759;48.094;-1.628;2023-07-24T06:02:03;0.40;;;0.40;;
40737;SDS011;54759;48.094;-1.628;2023-07-24T06:05:06;0.90;;;0.45;;
40737;SDS011;54759;48.094;-1.628;2023-07-24T06:08:08;0.82;;;0.50;;
40737;SDS011;54759;48.094;-1.628;2023-07-24T06:11:12;0.65;;;0.40;;
40737;SDS011;54759;48.094;-1.628;2023-07-24T06:14:14;0.40;;;0.40;;
40737;SDS011;54759;48.094;-1.628;2023-07-24T06:17:16;0.45;;;0.40;;
40737;SDS011;54759;48.094;-1.628;2023-07-24T06:20:18;0.63;;;0.47;;
40737;SDS011;54759;48.094;-1.628;2023-07-24T06:23:20;1.38;;;0.50;;
40737;SDS011;54759;48.094;-1.628;2023-07-24T06:26:22;0.95;;;0.47;;
40737;SDS011;54759;48.094;-1.628;2023-07-24T06:29:24;0.60;;;0.50;;
40737;SDS011;54759;48.094;-1.628;2023-07-24T06:32:27;0.40;;;0.40;;
40737;SDS011;54759;48.094;-1.628;2023-07-24T06:35:30;0.82;;;0.57;;
40737;SDS011;54759;48.094;-1.628;2023-07-24T06:38:33;0.68;;;0.40;;
40737;SDS011;54759;48.094;-1.628;2023-07-24T06:41:34;0.50;;;0.45;;
40737;SDS011;54759;48.094;-1.628;2023-07-24T06:44:36;0.75;;;0.40;;
40737;SDS011;54759;48.094;-1.628;2023-07-24T06:47:38;0.90;;;0.43;;
40737;SDS011;54759;48.094;-1.628;2023-07-24T06:50:40;0.28;;;0.28;;
40737;SDS011;54759;48.094;-1.628;2023-07-24T06:53:43;0.30;;;0.30;;
40737;SDS011;54759;48.094;-1.628;2023-07-24T06:56:44;0.60;;;0.50;;
40737;SDS011;54759;48.094;-1.628;2023-07-24T06:59:46;1.00;;;0.50;;
40737;SDS011;54759;48.094;-1.628;2023-07-24T07:02:49;0.50;;;0.50;;
40737;SDS011;54759;48.094;-1.628;2023-07-24T07:05:51;0.60;;;0.45;;
40737;SDS011;54759;48.094;-1.628;2023-07-24T07:08:53;1.02;;;0.50;;
40737;SDS011;54759;48.094;-1.628;2023-07-24T07:11:55;1.17;;;0.45;;
40737;SDS011;54759;48.094;-1.628;2023-07-24T07:14:57;0.30;;;0.30;;
40737;SDS011;54759;48.094;-1.628;2023-07-24T07:17:58;0.50;;;0.50;;
40737;SDS011;54759;48.094;-1.628;2023-07-24T07:21:01;0.57;;;0.50;;
40737;SDS011;54759;48.094;-1.628;2023-07-24T07:24:03;0.85;;;0.60;;
40737;SDS011;54759;48.094;-1.628;2023-07-24T07:27:08;0.43;;;0.40;;
40737;SDS011;54759;48.094;-1.628;2023-07-24T07:30:11;0.93;;;0.40;;
40737;SDS011;54759;48.094;-1.628;2023-07-24T07:33:13;0.30;;;0.30;;
40737;SDS011;54759;48.094;-1.628;2023-07-24T07:36:15;1.25;;;0.40;;
40737;SDS011;54759;48.094;-1.628;2023-07-24T07:39:18;0.57;;;0.57;;
40737;SDS011;54759;48.094;-1.628;2023-07-24T07:42:20;0.35;;;0.35;;
40737;SDS011;54759;48.094;-1.628;2023-07-24T07:45:22;1.20;;;0.70;;
40737;SDS011;54759;48.094;-1.628;2023-07-24T07:48:24;0.50;;;0.50;;
40737;SDS011;54759;48.094;-1.628;2023-07-24T07:51:26;0.30;;;0.30;;
40737;SDS011;54759;48.094;-1.628;2023-07-24T07:54:29;0.90;;;0.30;;
40737;SDS011;54759;48.094;-1.628;2023-07-24T07:57:34;0.65;;;0.40;;
40737;SDS011;54759;48.094;-1.628;2023-07-24T08:00:36;0.43;;;0.40;;
40737;SDS011;54759;48.094;-1.628;2023-07-24T08:03:40;0.68;;;0.30;;
40737;SDS011;54759;48.094;-1.628;2023-07-24T08:06:44;0.25;;;0.25;;
40737;SDS011;54759;48.094;-1.628;2023-07-24T08:09:47;0.43;;;0.30;;
40737;SDS011;54759;48.094;-1.628;2023-07-24T08:12:48;0.52;;;0.40;;
40737;SDS011;54759;48.094;-1.628;2023-07-24T08:15:53;0.65;;;0.30;;
40737;SDS011;54759;48.094;-1.628;2023-07-24T08:18:55;0.43;;;0.40;;
40737;SDS011;54759;48.094;-1.628;2023-07-24T08:21:58;0.43;;;0.30;;
40737;SDS011;54759;48.094;-1.628;2023-07-24T08:25:01;0.73;;;0.65;;
40737;SDS011;54759;48.094;-1.628;2023-07-24T08:28:03;0.88;;;0.60;;
40737;SDS011;54759;48.094;-1.628;2023-07-24T08:31:07;0.98;;;0.68;;
40737;SDS011;54759;48.094;-1.628;2023-07-24T08:34:10;0.90;;;0.68;;
40737;SDS011;54759;48.094;-1.628;2023-07-24T08:37:12;0.93;;;0.60;;
40737;SDS011;54759;48.094;-1.628;2023-07-24T08:40:15;0.93;;;0.52;;
40737;SDS011;54759;48.094;-1.628;2023-07-24T08:43:17;0.57;;;0.45;;
40737;SDS011;54759;48.094;-1.628;2023-07-24T08:46:19;0.68;;;0.50;;
40737;SDS011;54759;48.094;-1.628;2023-07-24T08:49:22;0.68;;;0.50;;
40737;SDS011;54759;48.094;-1.628;2023-07-24T08:52:24;0.80;;;0.68;;
40737;SDS011;54759;48.094;-1.628;2023-07-24T08:55:37;1.55;;;0.60;;
40737;SDS011;54759;48.094;-1.628;2023-07-24T08:58:40;1.33;;;0.50;;
40737;SDS011;54759;48.094;-1.628;2023-07-24T09:01:44;0.70;;;0.40;;
40737;SDS011;54759;48.094;-1.628;2023-07-24T09:04:46;0.80;;;0.50;;
40737;SDS011;54759;48.094;-1.628;2023-07-24T09:07:48;0.40;;;0.30;;
40737;SDS011;54759;48.094;-1.628;2023-07-24T09:10:51;0.68;;;0.40;;
40737;SDS011;54759;48.094;-1.628;2023-07-24T09:13:57;0.65;;;0.40;;
40737;SDS011;54759;48.094;-1.628;2023-07-24T09:17:03;0.40;;;0.40;;
40737;SDS011;54759;48.094;-1.628;2023-07-24T09:20:07;0.30;;;0.30;;
40737;SDS011;54759;48.094;-1.628;2023-07-24T09:23:10;0.93;;;0.52;;
40737;SDS011;54759;48.094;-1.628;2023-07-24T09:26:19;1.00;;;0.30;;
40737;SDS011;54759;48.094;-1.628;2023-07-24T09:29:29;0.47;;;0.47;;
40737;SDS011;54759;48.094;-1.628;2023-07-24T09:32:32;0.75;;;0.30;;
40737;SDS011;54759;48.094;-1.628;2023-07-24T09:35:34;0.65;;;0.40;;
40737;SDS011;54759;48.094;-1.628;2023-07-24T09:38:38;0.70;;;0.43;;
40737;SDS011;54759;48.094;-1.628;2023-07-24T09:41:41;0.30;;;0.30;;
40737;SDS011;54759;48.094;-1.628;2023-07-24T09:44:43;0.32;;;0.30;;
